sensor_id;sensor_type;location;lat;lon;timestamp;temperature;humidity
14517;DHT22;7344;50.864;4.362;2022-12-07T00:00:30;6.40;99.90
14517;DHT22;7344;50.864;4.362;2022-12-07T00:02:56;6.30;99.90
14517;DHT22;7344;50.864;4.362;2022-12-07T00:05:22;6.20;99.90
14517;DHT22;7344;50.864;4.362;2022-12-07T00:07:47;6.10;99.90
14517;DHT22;7344;50.864;4.362;2022-12-07T00:10:14;6.10;99.90
14517;DHT22;7344;50.864;4.362;2022-12-07T00:12:39;6.10;99.90
14517;DHT22;7344;50.864;4.362;2022-12-07T00:15:06;6.10;99.90
14517;DHT22;7344;50.864;4.362;2022-12-07T00:17:32;6.10;99.90
14517;DHT22;7344;50.864;4.362;2022-12-07T00:19:59;6.10;99.90
14517;DHT22;7344;50.864;4.362;2022-12-07T00:22:24;6.00;99.90
14517;DHT22;7344;50.864;4.362;2022-12-07T00:24:50;6.00;99.90
14517;DHT22;7344;50.864;4.362;2022-12-07T00:27:15;5.90;99.90
14517;DHT22;7344;50.864;4.362;2022-12-07T00:29:41;5.80;99.90
14517;DHT22;7344;50.864;4.362;2022-12-07T00:32:06;5.70;99.90
14517;DHT22;7344;50.864;4.362;2022-12-07T00:34:32;5.70;99.90
14517;DHT22;7344;50.864;4.362;2022-12-07T00:36:58;5.70;99.90
14517;DHT22;7344;50.864;4.362;2022-12-07T00:39:23;5.70;99.90
14517;DHT22;7344;50.864;4.362;2022-12-07T00:41:49;5.70;99.90
14517;DHT22;7344;50.864;4.362;2022-12-07T00:44:14;5.70;99.90
14517;DHT22;7344;50.864;4.362;2022-12-07T00:46:40;5.60;99.90
14517;DHT22;7344;50.864;4.362;2022-12-07T00:49:06;5.60;99.90
14517;DHT22;7344;50.864;4.362;2022-12-07T00:51:31;5.60;99.90
14517;DHT22;7344;50.864;4.362;2022-12-07T00:53:57;5.50;99.90
14517;DHT22;7344;50.864;4.362;2022-12-07T00:56:25;5.50;99.90
14517;DHT22;7344;50.864;4.362;2022-12-07T00:58:56;5.40;99.90
14517;DHT22;7344;50.864;4.362;2022-12-07T01:01:23;5.50;99.90
14517;DHT22;7344;50.864;4.362;2022-12-07T01:03:49;5.50;99.90
14517;DHT22;7344;50.864;4.362;2022-12-07T01:06:17;5.50;99.90
14517;DHT22;7344;50.864;4.362;2022-12-07T01:08:43;5.40;99.90
14517;DHT22;7344;50.864;4.362;2022-12-07T01:11:13;5.30;99.90
14517;DHT22;7344;50.864;4.362;2022-12-07T01:13:39;5.30;99.90
14517;DHT22;7344;50.864;4.362;2022-12-07T01:16:06;5.30;99.90
14517;DHT22;7344;50.864;4.362;2022-12-07T01:18:35;5.30;99.90
14517;DHT22;7344;50.864;4.362;2022-12-07T01:23:33;5.30;99.90
14517;DHT22;7344;50.864;4.362;2022-12-07T01:26:02;5.20;99.90
14517;DHT22;7344;50.864;4.362;2022-12-07T01:28:28;5.20;99.90
14517;DHT22;7344;50.864;4.362;2022-12-07T01:31:00;5.30;99.90
14517;DHT22;7344;50.864;4.362;2022-12-07T01:33:28;5.30;99.90
14517;DHT22;7344;50.864;4.362;2022-12-07T01:35:54;5.30;99.90
14517;DHT22;7344;50.864;4.362;2022-12-07T01:38:20;5.30;99.90
14517;DHT22;7344;50.864;4.362;2022-12-07T01:40:52;5.30;99.90
14517;DHT22;7344;50.864;4.362;2022-12-07T01:43:19;5.30;99.90
14517;DHT22;7344;50.864;4.362;2022-12-07T01:45:45;5.40;99.90
14517;DHT22;7344;50.864;4.362;2022-12-07T01:48:14;5.50;99.90
14517;DHT22;7344;50.864;4.362;2022-12-07T01:50:41;5.40;99.90
14517;DHT22;7344;50.864;4.362;2022-12-07T01:53:09;5.50;99.90
14517;DHT22;7344;50.864;4.362;2022-12-07T01:55:38;5.50;99.90
14517;DHT22;7344;50.864;4.362;2022-12-07T01:58:05;5.50;99.90
14517;DHT22;7344;50.864;4.362;2022-12-07T02:00:32;5.50;99.90
14517;DHT22;7344;50.864;4.362;2022-12-07T02:03:25;5.50;99.90
14517;DHT22;7344;50.864;4.362;2022-12-07T02:05:53;5.50;99.90
14517;DHT22;7344;50.864;4.362;2022-12-07T02:08:20;5.60;99.90
14517;DHT22;7344;50.864;4.362;2022-12-07T02:10:46;5.70;99.90
14517;DHT22;7344;50.864;4.362;2022-12-07T02:13:18;5.80;99.90
14517;DHT22;7344;50.864;4.362;2022-12-07T02:16:08;5.90;99.90
14517;DHT22;7344;50.864;4.362;2022-12-07T02:18:49;5.80;99.90
14517;DHT22;7344;50.864;4.362;2022-12-07T02:29:54;5.70;99.90
14517;DHT22;7344;50.864;4.362;2022-12-07T02:35:32;5.80;99.90
14517;DHT22;7344;50.864;4.362;2022-12-07T02:38:03;5.90;99.90
14517;DHT22;7344;50.864;4.362;2022-12-07T02:40:40;5.80;99.90
14517;DHT22;7344;50.864;4.362;2022-12-07T02:43:13;5.80;99.90
14517;DHT22;7344;50.864;4.362;2022-12-07T02:45:41;5.70;99.90
14517;DHT22;7344;50.864;4.362;2022-12-07T02:48:10;5.60;99.90
14517;DHT22;7344;50.864;4.362;2022-12-07T02:50:37;5.60;99.90
14517;DHT22;7344;50.864;4.362;2022-12-07T02:53:02;5.60;99.90
14517;DHT22;7344;50.864;4.362;2022-12-07T02:55:33;5.60;99.90
14517;DHT22;7344;50.864;4.362;2022-12-07T03:00:52;5.60;99.90
14517;DHT22;7344;50.864;4.362;2022-12-07T03:03:20;5.50;99.90
14517;DHT22;7344;50.864;4.362;2022-12-07T03:06:00;5.40;99.90
14517;DHT22;7344;50.864;4.362;2022-12-07T03:11:31;5.30;99.90
14517;DHT22;7344;50.864;4.362;2022-12-07T03:14:09;5.30;99.90
14517;DHT22;7344;50.864;4.362;2022-12-07T03:19:19;5.30;99.90
14517;DHT22;7344;50.864;4.362;2022-12-07T03:21:51;5.20;99.90
14517;DHT22;7344;50.864;4.362;2022-12-07T03:24:22;5.20;99.90
14517;DHT22;7344;50.864;4.362;2022-12-07T03:26:59;5.20;99.90
14517;DHT22;7344;50.864;4.362;2022-12-07T03:29:31;5.20;99.90
14517;DHT22;7344;50.864;4.362;2022-12-07T03:32:14;5.10;99.90
14517;DHT22;7344;50.864;4.362;2022-12-07T03:37:42;5.20;99.90
14517;DHT22;7344;50.864;4.362;2022-12-07T03:42:43;5.20;99.90
14517;DHT22;7344;50.864;4.362;2022-12-07T03:45:09;5.10;99.90
14517;DHT22;7344;50.864;4.362;2022-12-07T03:47:46;5.10;99.90
14517;DHT22;7344;50.864;4.362;2022-12-07T03:50:31;5.00;99.90
14517;DHT22;7344;50.864;4.362;2022-12-07T03:53:07;5.00;99.90
14517;DHT22;7344;50.864;4.362;2022-12-07T03:55:36;4.90;99.90
14517;DHT22;7344;50.864;4.362;2022-12-07T03:58:07;4.80;99.90
14517;DHT22;7344;50.864;4.362;2022-12-07T04:00:35;4.80;99.90
14517;DHT22;7344;50.864;4.362;2022-12-07T04:03:01;4.80;99.90
14517;DHT22;7344;50.864;4.362;2022-12-07T04:05:27;4.80;99.90
14517;DHT22;7344;50.864;4.362;2022-12-07T04:07:53;4.90;99.90
14517;DHT22;7344;50.864;4.362;2022-12-07T04:10:19;4.80;99.90
14517;DHT22;7344;50.864;4.362;2022-12-07T04:12:44;4.90;99.90
14517;DHT22;7344;50.864;4.362;2022-12-07T04:15:11;4.90;99.90
14517;DHT22;7344;50.864;4.362;2022-12-07T04:17:36;4.80;99.90
14517;DHT22;7344;50.864;4.362;2022-12-07T04:20:03;4.70;99.90
14517;DHT22;7344;50.864;4.362;2022-12-07T04:22:29;4.70;99.90
14517;DHT22;7344;50.864;4.362;2022-12-07T04:24:55;4.70;99.90
14517;DHT22;7344;50.864;4.362;2022-12-07T04:27:20;4.70;99.90
14517;DHT22;7344;50.864;4.362;2022-12-07T04:29:46;4.70;99.90
14517;DHT22;7344;50.864;4.362;2022-12-07T04:32:12;4.70;99.90
14517;DHT22;7344;50.864;4.362;2022-12-07T04:34:38;4.70;99.90
14517;DHT22;7344;50.864;4.362;2022-12-07T04:37:04;4.70;99.90
14517;DHT22;7344;50.864;4.362;2022-12-07T04:39:32;4.80;99.90
14517;DHT22;7344;50.864;4.362;2022-12-07T04:41:58;4.80;99.90
14517;DHT22;7344;50.864;4.362;2022-12-07T04:44:25;4.90;99.90
14517;DHT22;7344;50.864;4.362;2022-12-07T04:46:51;5.00;99.90
14517;DHT22;7344;50.864;4.362;2022-12-07T04:49:18;5.10;99.90
14517;DHT22;7344;50.864;4.362;2022-12-07T04:51:44;5.10;99.90
14517;DHT22;7344;50.864;4.362;2022-12-07T04:54:10;5.20;99.90
14517;DHT22;7344;50.864;4.362;2022-12-07T04:56:36;5.20;99.90
14517;DHT22;7344;50.864;4.362;2022-12-07T04:59:02;5.20;99.90
14517;DHT22;7344;50.864;4.362;2022-12-07T05:01:28;5.20;99.90
14517;DHT22;7344;50.864;4.362;2022-12-07T05:03:54;5.10;99.90
14517;DHT22;7344;50.864;4.362;2022-12-07T05:06:19;5.00;99.90
14517;DHT22;7344;50.864;4.362;2022-12-07T05:08:45;5.00;99.90
14517;DHT22;7344;50.864;4.362;2022-12-07T05:11:12;4.90;99.90
14517;DHT22;7344;50.864;4.362;2022-12-07T05:14:05;4.90;99.90
14517;DHT22;7344;50.864;4.362;2022-12-07T05:16:31;4.80;99.90
14517;DHT22;7344;50.864;4.362;2022-12-07T05:18:57;4.90;99.90
14517;DHT22;7344;50.864;4.362;2022-12-07T05:21:23;4.90;99.90
14517;DHT22;7344;50.864;4.362;2022-12-07T05:23:49;4.90;99.90
14517;DHT22;7344;50.864;4.362;2022-12-07T05:26:14;4.90;99.90
14517;DHT22;7344;50.864;4.362;2022-12-07T05:28:40;5.00;99.90
14517;DHT22;7344;50.864;4.362;2022-12-07T05:31:06;5.00;99.90
14517;DHT22;7344;50.864;4.362;2022-12-07T05:33:31;5.00;99.90
14517;DHT22;7344;50.864;4.362;2022-12-07T05:35:57;5.00;99.90
14517;DHT22;7344;50.864;4.362;2022-12-07T05:38:23;5.00;99.90
14517;DHT22;7344;50.864;4.362;2022-12-07T05:40:50;5.00;99.90
14517;DHT22;7344;50.864;4.362;2022-12-07T05:43:16;5.00;99.90
14517;DHT22;7344;50.864;4.362;2022-12-07T05:45:41;5.00;99.90
14517;DHT22;7344;50.864;4.362;2022-12-07T05:48:07;5.10;99.90
14517;DHT22;7344;50.864;4.362;2022-12-07T05:50:33;5.00;99.90
14517;DHT22;7344;50.864;4.362;2022-12-07T05:52:59;5.10;99.90
14517;DHT22;7344;50.864;4.362;2022-12-07T05:55:24;5.00;99.90
14517;DHT22;7344;50.864;4.362;2022-12-07T05:57:50;5.00;99.90
14517;DHT22;7344;50.864;4.362;2022-12-07T06:00:34;5.00;99.90
14517;DHT22;7344;50.864;4.362;2022-12-07T06:02:59;5.10;99.90
14517;DHT22;7344;50.864;4.362;2022-12-07T06:05:25;5.20;99.90
14517;DHT22;7344;50.864;4.362;2022-12-07T06:07:51;5.20;99.90
14517;DHT22;7344;50.864;4.362;2022-12-07T06:10:16;5.20;99.90
14517;DHT22;7344;50.864;4.362;2022-12-07T06:12:42;5.20;99.90
14517;DHT22;7344;50.864;4.362;2022-12-07T06:15:09;5.20;99.90
14517;DHT22;7344;50.864;4.362;2022-12-07T06:17:36;5.20;99.90
14517;DHT22;7344;50.864;4.362;2022-12-07T06:20:02;5.30;99.90
14517;DHT22;7344;50.864;4.362;2022-12-07T06:22:28;5.30;99.90
14517;DHT22;7344;50.864;4.362;2022-12-07T06:24:54;5.30;99.90
14517;DHT22;7344;50.864;4.362;2022-12-07T06:27:19;5.30;99.90
14517;DHT22;7344;50.864;4.362;2022-12-07T06:29:45;5.30;99.90
14517;DHT22;7344;50.864;4.362;2022-12-07T06:32:11;5.20;99.90
14517;DHT22;7344;50.864;4.362;2022-12-07T06:34:37;5.20;99.90
14517;DHT22;7344;50.864;4.362;2022-12-07T06:37:03;5.20;99.90
14517;DHT22;7344;50.864;4.362;2022-12-07T06:39:29;5.20;99.90
14517;DHT22;7344;50.864;4.362;2022-12-07T06:41:55;5.20;99.90
14517;DHT22;7344;50.864;4.362;2022-12-07T06:44:22;5.30;99.90
14517;DHT22;7344;50.864;4.362;2022-12-07T06:46:48;5.30;99.90
14517;DHT22;7344;50.864;4.362;2022-12-07T06:49:14;5.40;99.90
14517;DHT22;7344;50.864;4.362;2022-12-07T06:51:40;5.40;99.90
14517;DHT22;7344;50.864;4.362;2022-12-07T06:54:09;5.50;99.90
14517;DHT22;7344;50.864;4.362;2022-12-07T06:56:35;5.40;99.90
14517;DHT22;7344;50.864;4.362;2022-12-07T06:59:01;5.50;99.90
14517;DHT22;7344;50.864;4.362;2022-12-07T07:01:26;5.30;99.90
14517;DHT22;7344;50.864;4.362;2022-12-07T07:03:52;5.30;99.90
14517;DHT22;7344;50.864;4.362;2022-12-07T07:06:18;5.20;99.90
14517;DHT22;7344;50.864;4.362;2022-12-07T07:08:43;5.40;99.90
14517;DHT22;7344;50.864;4.362;2022-12-07T07:11:09;5.50;99.90
14517;DHT22;7344;50.864;4.362;2022-12-07T07:13:35;5.50;99.90
14517;DHT22;7344;50.864;4.362;2022-12-07T07:16:01;5.50;99.90
14517;DHT22;7344;50.864;4.362;2022-12-07T07:18:27;5.50;99.90
14517;DHT22;7344;50.864;4.362;2022-12-07T07:20:53;5.50;99.90
14517;DHT22;7344;50.864;4.362;2022-12-07T07:23:20;5.50;99.90
14517;DHT22;7344;50.864;4.362;2022-12-07T07:25:46;5.50;99.90
14517;DHT22;7344;50.864;4.362;2022-12-07T07:28:12;5.50;99.90
14517;DHT22;7344;50.864;4.362;2022-12-07T07:30:37;5.50;99.90
14517;DHT22;7344;50.864;4.362;2022-12-07T07:33:03;5.50;99.90
14517;DHT22;7344;50.864;4.362;2022-12-07T07:35:30;5.40;99.90
14517;DHT22;7344;50.864;4.362;2022-12-07T07:37:56;5.40;99.90
14517;DHT22;7344;50.864;4.362;2022-12-07T07:40:23;5.30;99.90
14517;DHT22;7344;50.864;4.362;2022-12-07T07:42:50;5.40;99.90
14517;DHT22;7344;50.864;4.362;2022-12-07T07:45:17;5.40;99.90
14517;DHT22;7344;50.864;4.362;2022-12-07T07:47:42;5.40;99.90
14517;DHT22;7344;50.864;4.362;2022-12-07T07:50:08;5.40;99.90
14517;DHT22;7344;50.864;4.362;2022-12-07T07:52:34;5.40;99.90
14517;DHT22;7344;50.864;4.362;2022-12-07T07:54:59;5.40;99.90
14517;DHT22;7344;50.864;4.362;2022-12-07T07:57:25;5.50;99.90
14517;DHT22;7344;50.864;4.362;2022-12-07T07:59:51;5.50;99.90
14517;DHT22;7344;50.864;4.362;2022-12-07T08:02:18;5.60;99.90
14517;DHT22;7344;50.864;4.362;2022-12-07T08:04:44;5.60;99.90
14517;DHT22;7344;50.864;4.362;2022-12-07T08:07:11;5.60;99.90
14517;DHT22;7344;50.864;4.362;2022-12-07T08:09:37;5.60;99.90
14517;DHT22;7344;50.864;4.362;2022-12-07T08:12:03;5.60;99.90
14517;DHT22;7344;50.864;4.362;2022-12-07T08:14:30;5.70;99.90
14517;DHT22;7344;50.864;4.362;2022-12-07T08:16:55;5.70;99.90
14517;DHT22;7344;50.864;4.362;2022-12-07T08:19:21;5.80;99.90
14517;DHT22;7344;50.864;4.362;2022-12-07T08:21:47;5.80;99.90
14517;DHT22;7344;50.864;4.362;2022-12-07T08:24:13;6.00;99.90
14517;DHT22;7344;50.864;4.362;2022-12-07T08:26:38;6.40;99.90
14517;DHT22;7344;50.864;4.362;2022-12-07T08:29:04;6.60;99.90
14517;DHT22;7344;50.864;4.362;2022-12-07T08:31:30;6.80;99.90
14517;DHT22;7344;50.864;4.362;2022-12-07T08:33:55;7.40;99.90
14517;DHT22;7344;50.864;4.362;2022-12-07T08:36:21;7.60;99.90
14517;DHT22;7344;50.864;4.362;2022-12-07T08:38:48;8.10;99.90
14517;DHT22;7344;50.864;4.362;2022-12-07T08:41:14;8.50;99.90
14517;DHT22;7344;50.864;4.362;2022-12-07T08:43:40;8.90;99.90
14517;DHT22;7344;50.864;4.362;2022-12-07T08:46:23;9.30;99.90
14517;DHT22;7344;50.864;4.362;2022-12-07T08:48:54;10.10;99.90
14517;DHT22;7344;50.864;4.362;2022-12-07T08:51:22;10.40;99.90
14517;DHT22;7344;50.864;4.362;2022-12-07T08:53:49;10.30;99.90
14517;DHT22;7344;50.864;4.362;2022-12-07T08:56:16;10.30;99.90
14517;DHT22;7344;50.864;4.362;2022-12-07T08:58:42;10.30;99.90
14517;DHT22;7344;50.864;4.362;2022-12-07T09:01:08;10.20;99.90
14517;DHT22;7344;50.864;4.362;2022-12-07T09:03:34;9.80;99.90
14517;DHT22;7344;50.864;4.362;2022-12-07T09:06:00;9.50;99.90
14517;DHT22;7344;50.864;4.362;2022-12-07T09:08:31;9.30;99.90
14517;DHT22;7344;50.864;4.362;2022-12-07T09:10:58;9.00;99.90
14517;DHT22;7344;50.864;4.362;2022-12-07T09:13:24;8.90;99.90
14517;DHT22;7344;50.864;4.362;2022-12-07T09:15:50;8.70;99.90
14517;DHT22;7344;50.864;4.362;2022-12-07T09:18:17;8.60;99.90
14517;DHT22;7344;50.864;4.362;2022-12-07T09:20:42;8.50;99.90
14517;DHT22;7344;50.864;4.362;2022-12-07T09:23:08;8.40;99.90
14517;DHT22;7344;50.864;4.362;2022-12-07T09:25:34;8.50;99.90
14517;DHT22;7344;50.864;4.362;2022-12-07T09:28:00;8.40;99.90
14517;DHT22;7344;50.864;4.362;2022-12-07T09:30:27;8.50;99.90
14517;DHT22;7344;50.864;4.362;2022-12-07T09:32:56;8.50;99.90
14517;DHT22;7344;50.864;4.362;2022-12-07T09:35:22;8.40;99.90
14517;DHT22;7344;50.864;4.362;2022-12-07T09:37:48;8.30;99.90
14517;DHT22;7344;50.864;4.362;2022-12-07T09:40:15;8.20;99.90
14517;DHT22;7344;50.864;4.362;2022-12-07T09:42:44;8.30;99.90
14517;DHT22;7344;50.864;4.362;2022-12-07T09:45:17;8.30;99.90
14517;DHT22;7344;50.864;4.362;2022-12-07T09:47:44;8.30;99.90
14517;DHT22;7344;50.864;4.362;2022-12-07T09:50:16;8.30;99.90
14517;DHT22;7344;50.864;4.362;2022-12-07T09:52:43;8.30;99.90
14517;DHT22;7344;50.864;4.362;2022-12-07T09:55:16;8.00;99.90
14517;DHT22;7344;50.864;4.362;2022-12-07T09:57:43;7.90;99.90
14517;DHT22;7344;50.864;4.362;2022-12-07T10:00:15;7.90;99.90
14517;DHT22;7344;50.864;4.362;2022-12-07T10:02:55;8.10;99.90
14517;DHT22;7344;50.864;4.362;2022-12-07T10:05:28;8.20;99.90
14517;DHT22;7344;50.864;4.362;2022-12-07T10:07:55;8.30;99.90
14517;DHT22;7344;50.864;4.362;2022-12-07T10:10:32;8.40;99.90
14517;DHT22;7344;50.864;4.362;2022-12-07T10:13:03;8.40;99.90
14517;DHT22;7344;50.864;4.362;2022-12-07T10:15:53;8.40;99.90
14517;DHT22;7344;50.864;4.362;2022-12-07T10:18:40;8.50;99.90
14517;DHT22;7344;50.864;4.362;2022-12-07T10:29:14;8.40;99.90
14517;DHT22;7344;50.864;4.362;2022-12-07T10:31:41;8.30;99.90
14517;DHT22;7344;50.864;4.362;2022-12-07T10:34:25;8.50;99.90
14517;DHT22;7344;50.864;4.362;2022-12-07T10:36:53;8.50;99.90
14517;DHT22;7344;50.864;4.362;2022-12-07T10:39:21;8.90;99.90
14517;DHT22;7344;50.864;4.362;2022-12-07T10:42:00;9.10;99.90
14517;DHT22;7344;50.864;4.362;2022-12-07T10:44:29;9.10;99.90
14517;DHT22;7344;50.864;4.362;2022-12-07T11:09:38;9.10;99.90
14517;DHT22;7344;50.864;4.362;2022-12-07T11:12:20;9.00;99.90
14517;DHT22;7344;50.864;4.362;2022-12-07T11:30:42;8.50;99.90
14517;DHT22;7344;50.864;4.362;2022-12-07T11:38:51;8.20;99.90
14517;DHT22;7344;50.864;4.362;2022-12-07T11:41:22;8.20;99.90
14517;DHT22;7344;50.864;4.362;2022-12-07T11:46:33;8.50;99.90
14517;DHT22;7344;50.864;4.362;2022-12-07T11:52:01;9.80;99.90
14517;DHT22;7344;50.864;4.362;2022-12-07T11:54:32;10.70;99.90
14517;DHT22;7344;50.864;4.362;2022-12-07T11:57:03;10.90;99.90
14517;DHT22;7344;50.864;4.362;2022-12-07T11:59:36;11.50;99.90
14517;DHT22;7344;50.864;4.362;2022-12-07T12:02:16;11.50;99.90
14517;DHT22;7344;50.864;4.362;2022-12-07T12:04:55;11.50;99.90
14517;DHT22;7344;50.864;4.362;2022-12-07T12:07:26;11.80;99.90
14517;DHT22;7344;50.864;4.362;2022-12-07T12:10:02;11.30;99.90
14517;DHT22;7344;50.864;4.362;2022-12-07T12:13:04;11.30;99.90
14517;DHT22;7344;50.864;4.362;2022-12-07T12:15:42;11.00;99.90
14517;DHT22;7344;50.864;4.362;2022-12-07T12:21:22;9.70;99.90
14517;DHT22;7344;50.864;4.362;2022-12-07T12:26:23;9.20;99.90
14517;DHT22;7344;50.864;4.362;2022-12-07T12:47:00;8.80;99.90
14517;DHT22;7344;50.864;4.362;2022-12-07T12:49:41;8.60;99.90
14517;DHT22;7344;50.864;4.362;2022-12-07T12:57:35;8.60;99.90
14517;DHT22;7344;50.864;4.362;2022-12-07T13:02:58;8.90;99.90
14517;DHT22;7344;50.864;4.362;2022-12-07T13:05:29;9.10;99.90
14517;DHT22;7344;50.864;4.362;2022-12-07T13:08:00;9.10;99.90
14517;DHT22;7344;50.864;4.362;2022-12-07T13:15:50;8.70;99.90
14517;DHT22;7344;50.864;4.362;2022-12-07T13:28:36;9.50;99.90
14517;DHT22;7344;50.864;4.362;2022-12-07T13:31:23;9.60;99.90
14517;DHT22;7344;50.864;4.362;2022-12-07T13:33:49;9.60;99.90
14517;DHT22;7344;50.864;4.362;2022-12-07T13:36:21;9.50;99.90
14517;DHT22;7344;50.864;4.362;2022-12-07T13:38:58;9.50;99.90
14517;DHT22;7344;50.864;4.362;2022-12-07T13:41:26;9.40;99.90
14517;DHT22;7344;50.864;4.362;2022-12-07T13:44:13;9.20;99.90
14517;DHT22;7344;50.864;4.362;2022-12-07T13:49:31;9.20;99.90
14517;DHT22;7344;50.864;4.362;2022-12-07T13:52:26;8.90;99.90
14517;DHT22;7344;50.864;4.362;2022-12-07T13:57:32;9.10;99.90
14517;DHT22;7344;50.864;4.362;2022-12-07T14:00:04;9.00;99.90
14517;DHT22;7344;50.864;4.362;2022-12-07T14:02:33;9.00;99.90
14517;DHT22;7344;50.864;4.362;2022-12-07T14:12:56;8.30;99.90
14517;DHT22;7344;50.864;4.362;2022-12-07T14:15:24;8.40;99.90
14517;DHT22;7344;50.864;4.362;2022-12-07T14:17:53;8.40;99.90
14517;DHT22;7344;50.864;4.362;2022-12-07T14:22:58;8.00;99.90
14517;DHT22;7344;50.864;4.362;2022-12-07T14:25:26;7.90;99.90
14517;DHT22;7344;50.864;4.362;2022-12-07T14:27:57;8.00;99.90
14517;DHT22;7344;50.864;4.362;2022-12-07T14:30:28;7.90;99.90
14517;DHT22;7344;50.864;4.362;2022-12-07T14:32:58;8.00;99.90
14517;DHT22;7344;50.864;4.362;2022-12-07T14:35:24;8.00;99.90
14517;DHT22;7344;50.864;4.362;2022-12-07T14:37:50;8.00;99.90
14517;DHT22;7344;50.864;4.362;2022-12-07T14:40:21;7.90;99.90
14517;DHT22;7344;50.864;4.362;2022-12-07T14:42:54;7.70;99.90
14517;DHT22;7344;50.864;4.362;2022-12-07T14:45:22;7.60;99.90
14517;DHT22;7344;50.864;4.362;2022-12-07T14:47:48;7.60;99.90
14517;DHT22;7344;50.864;4.362;2022-12-07T14:50:16;7.60;99.90
14517;DHT22;7344;50.864;4.362;2022-12-07T14:52:46;7.50;99.90
14517;DHT22;7344;50.864;4.362;2022-12-07T14:55:16;7.60;99.90
14517;DHT22;7344;50.864;4.362;2022-12-07T14:57:44;7.60;99.90
14517;DHT22;7344;50.864;4.362;2022-12-07T15:00:14;7.60;99.90
14517;DHT22;7344;50.864;4.362;2022-12-07T15:02:40;7.70;99.90
14517;DHT22;7344;50.864;4.362;2022-12-07T15:05:05;7.70;99.90
14517;DHT22;7344;50.864;4.362;2022-12-07T15:07:31;7.70;99.90
14517;DHT22;7344;50.864;4.362;2022-12-07T15:09:57;7.70;99.90
14517;DHT22;7344;50.864;4.362;2022-12-07T15:12:22;7.70;99.90
14517;DHT22;7344;50.864;4.362;2022-12-07T15:14:50;7.70;99.90
14517;DHT22;7344;50.864;4.362;2022-12-07T15:17:15;7.80;99.90
14517;DHT22;7344;50.864;4.362;2022-12-07T15:19:41;7.80;99.90
14517;DHT22;7344;50.864;4.362;2022-12-07T15:22:08;7.80;99.90
14517;DHT22;7344;50.864;4.362;2022-12-07T15:24:36;7.80;99.90
14517;DHT22;7344;50.864;4.362;2022-12-07T15:27:02;7.70;99.90
14517;DHT22;7344;50.864;4.362;2022-12-07T15:29:28;7.70;99.90
14517;DHT22;7344;50.864;4.362;2022-12-07T15:31:54;7.70;99.90
14517;DHT22;7344;50.864;4.362;2022-12-07T15:34:19;7.70;99.90
14517;DHT22;7344;50.864;4.362;2022-12-07T15:36:45;7.70;99.90
14517;DHT22;7344;50.864;4.362;2022-12-07T15:39:11;7.60;99.90
14517;DHT22;7344;50.864;4.362;2022-12-07T15:41:37;7.50;99.90
14517;DHT22;7344;50.864;4.362;2022-12-07T15:44:03;7.30;99.90
14517;DHT22;7344;50.864;4.362;2022-12-07T15:46:47;7.30;99.90
14517;DHT22;7344;50.864;4.362;2022-12-07T15:49:15;7.40;99.90
14517;DHT22;7344;50.864;4.362;2022-12-07T15:51:42;7.30;99.90
14517;DHT22;7344;50.864;4.362;2022-12-07T15:54:21;7.40;99.90
14517;DHT22;7344;50.864;4.362;2022-12-07T15:56:47;7.40;99.90
14517;DHT22;7344;50.864;4.362;2022-12-07T15:59:13;7.40;99.90
14517;DHT22;7344;50.864;4.362;2022-12-07T16:01:39;7.40;99.90
14517;DHT22;7344;50.864;4.362;2022-12-07T16:04:04;7.30;99.90
14517;DHT22;7344;50.864;4.362;2022-12-07T16:06:31;7.40;99.90
14517;DHT22;7344;50.864;4.362;2022-12-07T16:08:56;7.40;99.90
14517;DHT22;7344;50.864;4.362;2022-12-07T16:11:22;7.40;99.90
14517;DHT22;7344;50.864;4.362;2022-12-07T16:13:48;7.50;99.90
14517;DHT22;7344;50.864;4.362;2022-12-07T16:16:16;7.50;99.90
14517;DHT22;7344;50.864;4.362;2022-12-07T16:18:43;7.30;99.90
14517;DHT22;7344;50.864;4.362;2022-12-07T16:21:08;7.20;99.90
14517;DHT22;7344;50.864;4.362;2022-12-07T16:23:34;7.30;99.90
14517;DHT22;7344;50.864;4.362;2022-12-07T16:26:05;7.30;99.90
14517;DHT22;7344;50.864;4.362;2022-12-07T16:28:30;7.30;99.90
14517;DHT22;7344;50.864;4.362;2022-12-07T16:31:04;7.30;99.90
14517;DHT22;7344;50.864;4.362;2022-12-07T16:33:30;7.30;99.90
14517;DHT22;7344;50.864;4.362;2022-12-07T16:35:58;7.10;99.90
14517;DHT22;7344;50.864;4.362;2022-12-07T16:38:23;7.10;99.90
14517;DHT22;7344;50.864;4.362;2022-12-07T16:40:49;7.20;99.90
14517;DHT22;7344;50.864;4.362;2022-12-07T16:43:14;7.20;99.90
14517;DHT22;7344;50.864;4.362;2022-12-07T16:45:41;7.30;99.90
14517;DHT22;7344;50.864;4.362;2022-12-07T16:48:07;7.30;99.90
14517;DHT22;7344;50.864;4.362;2022-12-07T16:50:32;7.20;99.90
14517;DHT22;7344;50.864;4.362;2022-12-07T16:52:58;7.20;99.90
14517;DHT22;7344;50.864;4.362;2022-12-07T16:55:24;7.30;99.90
14517;DHT22;7344;50.864;4.362;2022-12-07T16:57:49;7.20;99.90
14517;DHT22;7344;50.864;4.362;2022-12-07T17:00:15;7.20;99.90
14517;DHT22;7344;50.864;4.362;2022-12-07T17:02:41;7.10;99.90
14517;DHT22;7344;50.864;4.362;2022-12-07T17:05:07;7.00;99.90
14517;DHT22;7344;50.864;4.362;2022-12-07T17:07:33;6.90;99.90
14517;DHT22;7344;50.864;4.362;2022-12-07T17:09:59;7.10;99.90
14517;DHT22;7344;50.864;4.362;2022-12-07T17:12:25;7.20;99.90
14517;DHT22;7344;50.864;4.362;2022-12-07T17:14:51;7.20;99.90
14517;DHT22;7344;50.864;4.362;2022-12-07T17:17:39;7.20;99.90
14517;DHT22;7344;50.864;4.362;2022-12-07T17:20:05;7.20;99.90
14517;DHT22;7344;50.864;4.362;2022-12-07T17:22:31;7.30;99.90
14517;DHT22;7344;50.864;4.362;2022-12-07T17:24:57;7.30;99.90
14517;DHT22;7344;50.864;4.362;2022-12-07T17:27:22;7.30;99.90
14517;DHT22;7344;50.864;4.362;2022-12-07T17:29:48;7.20;99.90
14517;DHT22;7344;50.864;4.362;2022-12-07T17:32:14;7.30;99.90
14517;DHT22;7344;50.864;4.362;2022-12-07T17:34:39;7.30;99.90
14517;DHT22;7344;50.864;4.362;2022-12-07T17:37:05;7.20;99.90
14517;DHT22;7344;50.864;4.362;2022-12-07T17:39:31;7.20;99.90
14517;DHT22;7344;50.864;4.362;2022-12-07T17:41:56;7.10;99.90
14517;DHT22;7344;50.864;4.362;2022-12-07T17:44:40;7.20;99.90
14517;DHT22;7344;50.864;4.362;2022-12-07T17:47:07;7.10;99.90
14517;DHT22;7344;50.864;4.362;2022-12-07T17:49:33;7.10;99.90
14517;DHT22;7344;50.864;4.362;2022-12-07T17:51:59;7.00;99.90
14517;DHT22;7344;50.864;4.362;2022-12-07T17:54:43;7.00;99.90
14517;DHT22;7344;50.864;4.362;2022-12-07T17:57:09;7.00;99.90
14517;DHT22;7344;50.864;4.362;2022-12-07T17:59:34;6.90;99.90
14517;DHT22;7344;50.864;4.362;2022-12-07T18:02:00;6.90;99.90
14517;DHT22;7344;50.864;4.362;2022-12-07T18:04:26;6.90;99.90
14517;DHT22;7344;50.864;4.362;2022-12-07T18:06:51;6.90;99.90
14517;DHT22;7344;50.864;4.362;2022-12-07T18:09:17;6.90;99.90
14517;DHT22;7344;50.864;4.362;2022-12-07T18:11:43;6.80;99.90
14517;DHT22;7344;50.864;4.362;2022-12-07T18:14:08;6.80;99.90
14517;DHT22;7344;50.864;4.362;2022-12-07T18:16:34;6.80;99.90
14517;DHT22;7344;50.864;4.362;2022-12-07T18:19:02;6.80;99.90
14517;DHT22;7344;50.864;4.362;2022-12-07T18:21:29;6.80;99.90
14517;DHT22;7344;50.864;4.362;2022-12-07T18:23:57;6.90;99.90
14517;DHT22;7344;50.864;4.362;2022-12-07T18:26:24;6.90;99.90
14517;DHT22;7344;50.864;4.362;2022-12-07T18:28:50;6.80;99.90
14517;DHT22;7344;50.864;4.362;2022-12-07T18:31:16;6.70;99.90
14517;DHT22;7344;50.864;4.362;2022-12-07T18:33:43;6.70;99.90
14517;DHT22;7344;50.864;4.362;2022-12-07T18:36:10;6.70;99.90
14517;DHT22;7344;50.864;4.362;2022-12-07T18:38:36;6.60;99.90